KBCT/BCT METAR and TAF weather

Enter ICAO airport designator
Station Type Date Time Source
KBCT METAR 2020/04/07 02:47 UTC NOAA

KBCT 070247Z 10010KT 8SM SCT018 BKN027 24/21 A3006


Station Type Date Time Source
KBCT Decoded METAR 2020/04/07 02:47 UTC NOAA

Boca Raton, Boca Raton Airport, FL, United States (KBCT) 26-22-43N 080-06-28W
Apr 06, 2020 - 10:47 PM EDT / 2020.04.07 0247 UTC
Wind: from the E (100 degrees) at 12 MPH (10 KT):0
Visibility: 8 mile(s):0
Sky conditions: mostly cloudy
Temperature: 75 F (24 C)
Dew Point: 69 F (21 C)
Relative Humidity: 83%
Pressure (altimeter): 30.06 in. Hg (1017 hPa)
ob: KBCT 070247Z 10010KT 8SM SCT018 BKN027 24/21 A3006
cycle: 3

Station Type Date Time Source
KBCT TAF 2020/02/03 18:20 UTC NOAA

TAF KBCT 031720Z 0318/0418 12005KT P6SM SKC
FM040000 VRB03KT P6SM SKC
FM041400 16011KT P6SM FEW030

Example: see airport list